createdAt,value
2022-10-06T00:00:25.121Z,14.89
2022-10-06T00:02:48.737Z,14.74
2022-10-06T00:05:12.330Z,14.86
2022-10-06T00:07:36.815Z,14.88
2022-10-06T00:10:00.517Z,14.88
2022-10-06T00:12:24.060Z,14.89
2022-10-06T00:14:49.021Z,14.88
2022-10-06T00:17:12.535Z,14.80
2022-10-06T00:19:36.130Z,14.87
2022-10-06T00:21:59.815Z,14.76
2022-10-06T00:24:23.418Z,14.77
2022-10-06T00:26:47.375Z,14.91
2022-10-06T00:29:13.324Z,14.90
2022-10-06T00:31:38.624Z,14.86
2022-10-06T00:34:02.233Z,14.70
2022-10-06T00:36:25.783Z,14.85
2022-10-06T00:38:49.532Z,14.87
2022-10-06T00:41:15.083Z,14.82
2022-10-06T00:43:49.773Z,14.77
2022-10-06T00:46:20.578Z,14.68
2022-10-06T00:48:48.631Z,14.63
2022-10-06T00:51:12.283Z,14.73
2022-10-06T00:53:36.338Z,14.61
2022-10-06T00:56:00.035Z,14.69
2022-10-06T00:58:23.600Z,14.77
2022-10-06T01:00:49.214Z,14.70
2022-10-06T01:03:19.007Z,14.73
2022-10-06T01:05:48.600Z,14.87
2022-10-06T01:08:12.174Z,14.68
2022-10-06T01:10:36.016Z,14.88
2022-10-06T01:12:59.676Z,14.88
2022-10-06T01:15:24.983Z,14.81
2022-10-06T01:17:55.808Z,14.89
2022-10-06T01:20:21.529Z,14.85
2022-10-06T01:22:50.431Z,14.91
2022-10-06T01:25:17.296Z,14.88
2022-10-06T01:27:44.723Z,14.88
2022-10-06T01:30:11.760Z,14.92
2022-10-06T01:32:40.102Z,14.84
2022-10-06T01:35:03.673Z,14.94
2022-10-06T01:37:27.396Z,14.97
2022-10-06T01:39:52.387Z,14.98
2022-10-06T01:42:16.067Z,15.12
2022-10-06T01:44:39.682Z,15.11
2022-10-06T01:47:06.201Z,15.03
2022-10-06T01:49:29.816Z,14.88
2022-10-06T01:51:53.403Z,15.00
2022-10-06T01:54:17.188Z,15.02
2022-10-06T01:56:42.174Z,15.02
2022-10-06T01:59:05.913Z,14.91
2022-10-06T02:01:29.585Z,14.90
2022-10-06T02:03:53.144Z,14.91
2022-10-06T02:06:16.797Z,14.96
2022-10-06T02:08:40.867Z,15.03
2022-10-06T02:11:09.090Z,15.07
2022-10-06T02:13:39.906Z,14.94
2022-10-06T02:16:04.009Z,14.98
2022-10-06T02:18:28.408Z,14.85
2022-10-06T02:20:52.215Z,14.92
2022-10-06T02:23:15.766Z,14.88
2022-10-06T02:25:39.311Z,14.65
2022-10-06T02:28:03.331Z,14.65
2022-10-06T02:30:29.579Z,14.84
2022-10-06T02:32:53.471Z,14.71
2022-10-06T02:35:17.575Z,14.69
2022-10-06T02:37:42.602Z,14.72
2022-10-06T02:40:10.772Z,14.81
2022-10-06T02:42:37.620Z,14.72
2022-10-06T02:45:02.431Z,14.78
2022-10-06T02:47:27.547Z,14.63
2022-10-06T02:49:51.721Z,14.58
2022-10-06T02:52:16.074Z,14.66
2022-10-06T02:54:39.701Z,14.63
2022-10-06T02:57:03.269Z,14.77
2022-10-06T02:59:27.450Z,14.81
2022-10-06T03:01:52.633Z,14.92
2022-10-06T03:04:17.708Z,14.81
2022-10-06T03:06:42.250Z,14.88
2022-10-06T03:09:18.809Z,15.02
2022-10-06T03:11:44.244Z,15.18
2022-10-06T03:14:14.092Z,15.07
2022-10-06T03:16:41.711Z,15.04
2022-10-06T03:19:13.525Z,15.19
2022-10-06T03:21:44.465Z,15.11
2022-10-06T03:24:10.187Z,15.16
2022-10-06T03:26:36.834Z,15.26
2022-10-06T03:29:01.410Z,15.37
2022-10-06T03:31:26.015Z,15.16
2022-10-06T03:33:50.743Z,15.08
2022-10-06T03:36:16.769Z,15.14
2022-10-06T03:38:42.103Z,15.25
2022-10-06T03:41:08.626Z,15.27
2022-10-06T03:43:32.552Z,15.35
2022-10-06T03:46:00.907Z,15.15
2022-10-06T03:48:26.118Z,15.16
2022-10-06T03:50:57.095Z,15.19
2022-10-06T03:53:25.531Z,15.19
2022-10-06T03:55:50.927Z,15.11
2022-10-06T03:58:18.747Z,15.25
2022-10-06T04:00:42.287Z,15.46
2022-10-06T04:03:06.338Z,15.02
2022-10-06T04:05:29.901Z,15.20
2022-10-06T04:07:54.259Z,14.97
2022-10-06T04:10:17.919Z,15.18
2022-10-06T04:12:42.843Z,15.32
2022-10-06T04:15:07.587Z,15.14
2022-10-06T04:17:31.515Z,15.15
2022-10-06T04:19:55.082Z,15.14
2022-10-06T04:22:19.195Z,15.07
2022-10-06T04:24:43.675Z,15.14
2022-10-06T04:27:29.995Z,15.18
2022-10-06T04:30:05.788Z,15.41
2022-10-06T04:32:30.646Z,15.26
2022-10-06T04:34:54.166Z,15.18
2022-10-06T04:37:18.880Z,15.27
2022-10-06T04:39:42.610Z,15.29
2022-10-06T04:42:07.440Z,15.42
2022-10-06T04:44:31.031Z,15.44
2022-10-06T04:47:00.506Z,15.26
2022-10-06T04:49:24.845Z,15.39
2022-10-06T04:51:50.554Z,15.00
2022-10-06T04:54:14.623Z,15.15
2022-10-06T04:56:38.442Z,15.25
2022-10-06T04:59:02.665Z,15.18
2022-10-06T05:01:32.183Z,15.20
2022-10-06T05:04:02.067Z,15.28
2022-10-06T05:06:29.738Z,15.24
2022-10-06T05:08:56.146Z,15.40
2022-10-06T05:11:25.593Z,15.05
2022-10-06T05:13:51.077Z,15.01
2022-10-06T05:16:17.184Z,15.02
2022-10-06T05:18:43.219Z,14.96
2022-10-06T05:21:12.822Z,14.82
2022-10-06T05:23:39.230Z,15.09
2022-10-06T05:26:03.102Z,15.00
2022-10-06T05:28:29.885Z,14.91
2022-10-06T05:30:59.957Z,14.88
2022-10-06T05:33:23.654Z,14.74
2022-10-06T05:35:53.602Z,14.63
2022-10-06T05:38:19.468Z,14.87
2022-10-06T05:40:49.589Z,14.72
2022-10-06T05:43:13.249Z,14.79
2022-10-06T05:45:36.853Z,14.79
2022-10-06T05:48:00.595Z,14.63
2022-10-06T05:50:24.659Z,14.42
2022-10-06T05:52:48.560Z,14.51
2022-10-06T05:55:13.707Z,14.54
2022-10-06T05:57:37.285Z,14.63
2022-10-06T06:00:00.834Z,14.50
2022-10-06T06:02:24.741Z,14.40
2022-10-06T06:04:48.548Z,14.20
2022-10-06T06:07:12.856Z,14.15
2022-10-06T06:09:38.996Z,14.26
2022-10-06T06:12:04.014Z,14.34
2022-10-06T06:14:51.290Z,14.25
2022-10-06T06:17:19.306Z,14.32
2022-10-06T06:19:42.835Z,14.27
2022-10-06T06:22:06.790Z,14.37
2022-10-06T06:24:33.154Z,14.27
2022-10-06T06:26:57.396Z,14.24
2022-10-06T06:29:24.087Z,14.18
2022-10-06T06:31:48.618Z,14.67
2022-10-06T06:34:12.731Z,15.02
2022-10-06T06:36:40.952Z,15.09
2022-10-06T06:39:10.306Z,15.55
2022-10-06T06:41:37.829Z,16.16
2022-10-06T06:44:16.967Z,15.86
2022-10-06T06:46:50.169Z,16.47
2022-10-06T06:49:15.954Z,16.43
2022-10-06T06:51:49.576Z,16.21
2022-10-06T06:54:14.942Z,16.16
2022-10-06T06:56:40.554Z,15.67
2022-10-06T06:59:11.864Z,15.80
2022-10-06T07:01:39.018Z,15.38
2022-10-06T07:04:04.410Z,15.35
2022-10-06T07:06:32.704Z,15.33
2022-10-06T07:09:00.403Z,14.82
2022-10-06T07:11:27.273Z,14.83
2022-10-06T07:13:55.591Z,14.62
2022-10-06T07:16:37.584Z,15.11
2022-10-06T07:19:24.623Z,14.56
2022-10-06T07:22:10.699Z,15.13
2022-10-06T07:24:51.488Z,15.04
2022-10-06T07:27:15.176Z,15.14
2022-10-06T07:29:38.892Z,15.17
2022-10-06T07:32:03.142Z,15.14
2022-10-06T07:34:30.552Z,15.11
2022-10-06T07:36:54.898Z,15.15
2022-10-06T07:39:18.496Z,15.37
2022-10-06T07:41:42.096Z,15.43
2022-10-06T07:44:08.056Z,15.08
2022-10-06T07:46:33.867Z,15.12
2022-10-06T07:49:05.215Z,14.95
2022-10-06T07:51:30.394Z,15.27
2022-10-06T07:53:55.417Z,15.29
2022-10-06T07:56:48.074Z,15.35
2022-10-06T07:59:11.863Z,15.52
2022-10-06T08:01:35.409Z,15.49
2022-10-06T08:03:59.484Z,15.50
2022-10-06T08:06:23.765Z,15.36
2022-10-06T08:08:52.803Z,15.43
2022-10-06T08:11:17.623Z,15.59
2022-10-06T08:13:43.474Z,15.20
2022-10-06T08:16:07.795Z,15.77
2022-10-06T08:18:45.925Z,16.34
2022-10-06T08:21:13.702Z,16.44
2022-10-06T08:23:40.551Z,16.54
2022-10-06T08:26:05.499Z,16.41
2022-10-06T08:28:30.585Z,16.63
2022-10-06T08:30:55.473Z,16.82
2022-10-06T08:33:21.460Z,16.62
2022-10-06T08:35:45.288Z,17.01
2022-10-06T08:38:08.787Z,17.15
2022-10-06T08:40:33.663Z,17.30
2022-10-06T08:43:02.447Z,16.59
2022-10-06T08:45:38.225Z,16.54
2022-10-06T08:48:07.176Z,16.35
2022-10-06T08:50:35.241Z,16.36
2022-10-06T08:53:14.034Z,15.98
2022-10-06T08:55:47.890Z,16.32
2022-10-06T08:58:36.573Z,16.39
2022-10-06T09:01:14.365Z,16.46
2022-10-06T09:03:38.595Z,16.63
2022-10-06T09:06:14.692Z,16.42
2022-10-06T09:08:50.938Z,16.55
2022-10-06T09:11:46.346Z,16.71
2022-10-06T09:14:19.241Z,16.61
2022-10-06T09:16:49.881Z,16.63
2022-10-06T09:19:20.611Z,16.46
2022-10-06T09:21:49.077Z,16.95
2022-10-06T09:24:17.810Z,17.41
2022-10-06T09:26:45.385Z,17.26
2022-10-06T09:29:08.905Z,17.41
2022-10-06T09:31:39.884Z,17.81
2022-10-06T09:34:10.662Z,17.67
2022-10-06T09:36:34.342Z,17.98
2022-10-06T09:39:00.809Z,18.46
2022-10-06T09:41:29.476Z,18.47
2022-10-06T09:43:57.733Z,18.88
2022-10-06T09:46:24.978Z,18.28
2022-10-06T09:48:49.887Z,18.30
2022-10-06T09:51:16.783Z,17.61
2022-10-06T09:53:40.610Z,18.34
2022-10-06T09:56:06.059Z,18.15
2022-10-06T09:58:34.287Z,19.05
2022-10-06T10:01:01.282Z,19.00
2022-10-06T10:03:27.213Z,19.16
2022-10-06T10:05:54.895Z,19.72
2022-10-06T10:08:24.021Z,19.96
2022-10-06T10:10:47.675Z,19.91
2022-10-06T10:13:22.608Z,20.16
2022-10-06T10:15:55.165Z,20.37
2022-10-06T10:18:26.342Z,19.98
2022-10-06T10:20:55.767Z,19.77
2022-10-06T10:23:30.838Z,19.71
2022-10-06T10:26:23.585Z,19.82
2022-10-06T10:29:19.571Z,20.29
2022-10-06T10:31:58.262Z,20.17
2022-10-06T10:34:42.062Z,20.38
2022-10-06T10:37:12.743Z,20.00
2022-10-06T10:39:43.387Z,19.60
2022-10-06T10:42:13.450Z,20.10
2022-10-06T10:44:44.526Z,19.13
2022-10-06T10:47:18.943Z,19.17
2022-10-06T10:49:46.840Z,18.82
2022-10-06T10:52:17.571Z,19.06
2022-10-06T10:54:49.435Z,18.93
2022-10-06T10:57:17.332Z,18.62
2022-10-06T10:59:55.118Z,19.20
2022-10-06T11:02:22.538Z,18.79
2022-10-06T11:04:49.618Z,18.17
2022-10-06T11:07:23.438Z,18.37
2022-10-06T11:09:55.492Z,18.46
2022-10-06T11:12:36.387Z,18.21
2022-10-06T11:15:05.226Z,18.37
2022-10-06T11:17:45.340Z,18.30
2022-10-06T11:20:27.059Z,17.83
2022-10-06T11:23:00.555Z,18.43
2022-10-06T11:25:35.090Z,18.15
2022-10-06T11:28:08.970Z,17.73
2022-10-06T11:30:38.145Z,17.44
2022-10-06T11:33:13.647Z,17.40
2022-10-06T11:35:39.420Z,17.78
2022-10-06T11:38:13.195Z,17.84
2022-10-06T11:40:51.841Z,17.91
2022-10-06T11:43:28.622Z,18.15
2022-10-06T11:46:01.625Z,17.59
2022-10-06T11:48:28.155Z,17.66
2022-10-06T11:50:55.393Z,17.69
2022-10-06T11:53:41.752Z,17.87
2022-10-06T11:56:46.890Z,18.16
2022-10-06T11:59:26.227Z,17.65
2022-10-06T12:01:57.540Z,17.76
2022-10-06T12:04:24.712Z,17.72
2022-10-06T12:07:03.228Z,17.52
2022-10-06T12:09:52.087Z,17.77
2022-10-06T12:13:06.646Z,18.14
2022-10-06T12:19:19.662Z,18.64
2022-10-06T12:21:55.927Z,18.23
2022-10-06T12:24:39.044Z,18.24
2022-10-06T12:27:42.853Z,18.53
2022-10-06T12:30:22.606Z,18.48
2022-10-06T12:32:54.826Z,18.21
2022-10-06T12:35:30.414Z,18.35
2022-10-06T12:37:55.317Z,18.73
2022-10-06T12:41:02.793Z,18.69
2022-10-06T12:43:58.246Z,19.04
2022-10-06T12:46:40.620Z,18.84
2022-10-06T12:49:31.967Z,18.58
2022-10-06T12:51:59.681Z,17.85
2022-10-06T12:54:33.366Z,17.89
2022-10-06T12:57:00.673Z,18.50
2022-10-06T12:59:28.361Z,18.49
2022-10-06T13:01:54.037Z,18.50
2022-10-06T13:04:38.402Z,18.83
2022-10-06T13:07:08.521Z,18.68
2022-10-06T13:09:32.493Z,18.71
2022-10-06T13:11:58.183Z,18.66
2022-10-06T13:14:23.771Z,18.49
2022-10-06T13:16:49.531Z,18.58
2022-10-06T13:19:19.008Z,18.50
2022-10-06T13:21:42.584Z,18.30
2022-10-06T13:24:06.853Z,17.94
2022-10-06T13:26:34.664Z,18.26
2022-10-06T13:29:01.218Z,18.66
2022-10-06T13:31:27.340Z,18.27
2022-10-06T13:33:55.887Z,18.65
2022-10-06T13:36:20.366Z,18.00
2022-10-06T13:38:44.142Z,17.94
2022-10-06T13:41:18.858Z,18.20
2022-10-06T13:43:47.061Z,18.33
2022-10-06T13:46:15.907Z,18.25
2022-10-06T13:48:46.499Z,18.42
2022-10-06T13:51:18.673Z,18.35
2022-10-06T13:53:45.005Z,18.40
2022-10-06T13:56:46.122Z,18.40
2022-10-06T13:59:37.066Z,18.39
2022-10-06T14:02:22.698Z,18.58
2022-10-06T14:04:46.842Z,18.32
2022-10-06T14:07:14.024Z,18.62
2022-10-06T14:09:37.691Z,18.59
2022-10-06T14:12:07.846Z,18.40
2022-10-06T14:14:31.910Z,18.47
2022-10-06T14:16:55.659Z,18.16
2022-10-06T14:19:34.277Z,18.03
2022-10-06T14:21:57.861Z,17.82
2022-10-06T14:24:26.249Z,18.08
2022-10-06T14:26:51.209Z,17.82
2022-10-06T14:29:15.090Z,17.69
2022-10-06T14:31:38.953Z,17.50
2022-10-06T14:34:03.504Z,17.47
2022-10-06T14:36:30.201Z,17.81
2022-10-06T14:38:56.786Z,17.52
2022-10-06T14:41:24.737Z,17.88
2022-10-06T14:43:49.325Z,17.49
2022-10-06T14:46:14.598Z,17.27
2022-10-06T14:48:38.314Z,17.42
2022-10-06T14:51:04.240Z,17.44
2022-10-06T14:53:29.250Z,17.45
2022-10-06T14:55:52.844Z,17.54
2022-10-06T14:58:16.422Z,17.45
2022-10-06T15:00:42.911Z,17.06
2022-10-06T15:03:06.673Z,17.55
2022-10-06T15:05:31.323Z,16.97
2022-10-06T15:08:12.260Z,17.31
2022-10-06T15:10:38.874Z,17.33
2022-10-06T15:13:02.434Z,17.28
2022-10-06T15:15:26.120Z,16.87
2022-10-06T15:17:49.732Z,16.97
2022-10-06T15:20:14.349Z,16.92
2022-10-06T15:22:37.895Z,16.88
2022-10-06T15:25:03.370Z,16.98
2022-10-06T15:27:45.480Z,16.82
2022-10-06T15:30:11.466Z,16.92
2022-10-06T15:32:35.008Z,16.53
2022-10-06T15:35:00.254Z,16.35
2022-10-06T15:37:23.886Z,16.69
2022-10-06T15:39:47.611Z,16.70
2022-10-06T15:42:11.205Z,16.60
2022-10-06T15:44:36.557Z,16.58
2022-10-06T15:47:00.111Z,16.77
2022-10-06T15:49:25.280Z,16.67
2022-10-06T15:51:52.548Z,16.52
2022-10-06T15:54:19.878Z,16.46
2022-10-06T15:56:43.395Z,16.52
2022-10-06T15:59:07.957Z,16.51
2022-10-06T16:01:46.531Z,16.34
2022-10-06T16:04:24.072Z,16.23
2022-10-06T16:06:54.375Z,16.11
2022-10-06T16:09:19.873Z,16.03
2022-10-06T16:11:43.511Z,15.95
2022-10-06T16:14:07.455Z,15.95
2022-10-06T16:16:31.194Z,15.78
2022-10-06T16:18:56.511Z,15.64
2022-10-06T16:21:20.098Z,15.56
2022-10-06T16:23:43.666Z,15.47
2022-10-06T16:26:07.480Z,15.33
2022-10-06T16:28:31.145Z,15.26
2022-10-06T16:30:58.144Z,15.12
2022-10-06T16:33:21.920Z,15.02
2022-10-06T16:35:55.953Z,14.93
2022-10-06T16:38:19.707Z,14.83
2022-10-06T16:40:43.289Z,14.74
2022-10-06T16:43:07.021Z,14.65
2022-10-06T16:45:30.645Z,14.53
2022-10-06T16:47:54.214Z,14.41
2022-10-06T16:50:17.907Z,14.32
2022-10-06T16:52:42.901Z,14.23
2022-10-06T16:55:08.283Z,14.13
2022-10-06T16:57:31.883Z,14.05
2022-10-06T16:59:55.420Z,13.98
2022-10-06T17:02:19.008Z,13.85
2022-10-06T17:04:42.562Z,13.76
2022-10-06T17:07:06.135Z,13.69
2022-10-06T17:09:31.379Z,13.62
2022-10-06T17:11:57.437Z,13.56
2022-10-06T17:14:22.384Z,13.39
2022-10-06T17:16:48.309Z,13.33
2022-10-06T17:19:14.476Z,13.24
2022-10-06T17:21:47.336Z,13.12
2022-10-06T17:24:11.213Z,13.03
2022-10-06T17:26:39.136Z,13.00
2022-10-06T17:29:06.540Z,12.93
2022-10-06T17:31:35.767Z,12.84
2022-10-06T17:33:59.891Z,12.78
2022-10-06T17:36:25.438Z,12.71
2022-10-06T17:38:52.179Z,12.61
2022-10-06T17:41:18.483Z,12.60
2022-10-06T17:43:46.994Z,12.52
2022-10-06T17:46:14.255Z,12.42
2022-10-06T17:48:37.940Z,12.36
2022-10-06T17:51:01.903Z,12.27
2022-10-06T17:53:26.703Z,12.17
2022-10-06T17:55:50.267Z,12.09
2022-10-06T17:58:18.453Z,11.97
2022-10-06T18:00:43.673Z,11.96
2022-10-06T18:03:09.033Z,11.89
2022-10-06T18:05:33.243Z,11.83
2022-10-06T18:07:58.830Z,11.81
2022-10-06T18:10:39.935Z,11.75
2022-10-06T18:13:03.553Z,11.72
2022-10-06T18:15:27.168Z,11.66
2022-10-06T18:17:52.900Z,11.56
2022-10-06T18:20:16.716Z,11.50
2022-10-06T18:22:40.623Z,11.43
2022-10-06T18:25:04.559Z,11.38
2022-10-06T18:27:28.411Z,11.36
2022-10-06T18:29:52.257Z,11.26
2022-10-06T18:33:40.218Z,11.19
2022-10-06T18:37:44.686Z,11.14
2022-10-06T18:40:11.287Z,11.15
2022-10-06T18:42:34.971Z,11.07
2022-10-06T18:45:18.246Z,11.03
2022-10-06T18:47:59.480Z,10.89
2022-10-06T18:50:26.551Z,10.85
2022-10-06T18:52:50.464Z,10.84
2022-10-06T18:55:14.289Z,10.77
2022-10-06T18:57:37.836Z,10.70
2022-10-06T19:00:01.751Z,10.68
2022-10-06T19:02:26.399Z,10.65
2022-10-06T19:04:50.265Z,10.66
2022-10-06T19:07:16.463Z,10.59
2022-10-06T19:09:45.342Z,10.55
2022-10-06T19:12:11.109Z,10.46
2022-10-06T19:14:40.621Z,10.36
2022-10-06T19:17:09.065Z,10.35
2022-10-06T19:19:34.071Z,10.19
2022-10-06T19:22:00.526Z,10.09
2022-10-06T19:24:25.602Z,10.12
2022-10-06T19:26:52.600Z,10.13
2022-10-06T19:29:22.780Z,10.05
2022-10-06T19:31:48.028Z,9.96
2022-10-06T19:34:14.448Z,10.00
2022-10-06T19:36:39.134Z,9.97
2022-10-06T19:39:04.572Z,9.96
2022-10-06T19:41:47.179Z,9.94
2022-10-06T19:44:12.190Z,9.93
2022-10-06T19:46:37.504Z,9.74
2022-10-06T19:49:05.716Z,9.83
2022-10-06T19:51:29.319Z,9.80
2022-10-06T19:53:53.074Z,9.77
2022-10-06T19:56:18.090Z,9.73
2022-10-06T19:58:43.029Z,9.66
2022-10-06T20:01:07.358Z,9.65
2022-10-06T20:03:31.496Z,9.54
2022-10-06T20:05:55.229Z,9.52
2022-10-06T20:08:20.176Z,9.51
2022-10-06T20:10:43.772Z,9.51
2022-10-06T20:13:07.429Z,9.42
2022-10-06T20:15:32.555Z,9.42
2022-10-06T20:17:56.369Z,9.33
2022-10-06T20:20:20.187Z,9.31
2022-10-06T20:22:43.872Z,9.28
2022-10-06T20:25:07.900Z,9.29
2022-10-06T20:27:31.744Z,9.20
2022-10-06T20:29:55.279Z,9.18
2022-10-06T20:32:20.267Z,9.02
2022-10-06T20:34:44.417Z,9.05
2022-10-06T20:37:08.089Z,9.03
2022-10-06T20:40:03.339Z,8.93
2022-10-06T20:42:27.996Z,8.94
2022-10-06T20:44:51.543Z,8.90
2022-10-06T20:47:16.553Z,8.91
2022-10-06T20:49:42.582Z,8.84
2022-10-06T20:52:07.388Z,8.79
2022-10-06T20:54:34.838Z,8.70
2022-10-06T20:56:59.038Z,8.70
2022-10-06T20:59:24.708Z,8.69
2022-10-06T21:01:51.013Z,8.66
2022-10-06T21:04:15.198Z,8.61
2022-10-06T21:06:40.388Z,8.50
2022-10-06T21:09:03.887Z,8.52
2022-10-06T21:11:28.212Z,8.52
2022-10-06T21:13:53.741Z,8.53
2022-10-06T21:16:17.417Z,8.52
2022-10-06T21:18:40.996Z,8.44
2022-10-06T21:21:07.706Z,8.45
2022-10-06T21:23:38.485Z,8.39
2022-10-06T21:26:03.172Z,8.36
2022-10-06T21:28:26.731Z,8.34
2022-10-06T21:30:50.463Z,8.31
2022-10-06T21:33:14.084Z,8.40
2022-10-06T21:35:37.622Z,8.26
2022-10-06T21:38:01.134Z,8.22
2022-10-06T21:40:26.134Z,8.22
2022-10-06T21:42:49.689Z,8.14
2022-10-06T21:45:13.223Z,8.13
2022-10-06T21:47:36.676Z,8.05
2022-10-06T21:50:00.260Z,8.03
2022-10-06T21:52:23.732Z,8.05
2022-10-06T21:54:47.255Z,8.04
2022-10-06T21:57:15.340Z,7.99
2022-10-06T21:59:38.895Z,7.92
2022-10-06T22:02:02.639Z,7.94
2022-10-06T22:04:26.436Z,7.88
2022-10-06T22:06:50.735Z,7.90
2022-10-06T22:09:18.351Z,7.81
2022-10-06T22:11:42.652Z,7.84
2022-10-06T22:14:14.112Z,7.79
2022-10-06T22:16:38.829Z,7.89
2022-10-06T22:19:05.274Z,7.72
2022-10-06T22:21:32.339Z,7.81
2022-10-06T22:23:58.003Z,7.86
2022-10-06T22:26:21.672Z,7.64
2022-10-06T22:28:48.790Z,7.66
2022-10-06T22:31:14.278Z,7.65
2022-10-06T22:33:39.723Z,7.64
2022-10-06T22:36:03.824Z,7.58
2022-10-06T22:38:27.464Z,7.50
2022-10-06T22:40:51.016Z,7.53
2022-10-06T22:43:14.532Z,7.57
2022-10-06T22:45:38.100Z,7.51
2022-10-06T22:48:02.996Z,7.43
2022-10-06T22:50:26.605Z,7.42
2022-10-06T22:52:50.132Z,7.42
2022-10-06T22:55:13.693Z,7.37
2022-10-06T22:57:37.228Z,7.16
2022-10-06T23:00:00.759Z,7.26
2022-10-06T23:02:24.327Z,7.30
2022-10-06T23:04:49.266Z,7.26
2022-10-06T23:07:12.740Z,7.22
2022-10-06T23:09:36.718Z,7.22
2022-10-06T23:12:00.208Z,7.11
2022-10-06T23:14:23.825Z,7.05
2022-10-06T23:16:47.502Z,7.11
2022-10-06T23:19:12.157Z,7.11
2022-10-06T23:21:39.925Z,7.11
2022-10-06T23:24:03.509Z,7.10
2022-10-06T23:26:27.679Z,7.04
2022-10-06T23:28:56.858Z,7.01
2022-10-06T23:31:20.435Z,6.94
2022-10-06T23:33:44.140Z,7.02
2022-10-06T23:36:10.337Z,6.93
2022-10-06T23:38:36.138Z,6.97
2022-10-06T23:40:59.667Z,6.93
2022-10-06T23:43:24.429Z,6.82
2022-10-06T23:45:47.997Z,6.88
2022-10-06T23:48:11.607Z,6.86
2022-10-06T23:50:35.123Z,6.79
2022-10-06T23:52:58.679Z,6.65
2022-10-06T23:55:23.601Z,6.66
2022-10-06T23:57:47.302Z,6.70
